createdAt,value
2022-10-07T00:00:29.210Z,7.24
2022-10-07T00:01:26.136Z,7.23
2022-10-07T00:02:26.089Z,7.21
2022-10-07T00:03:26.045Z,7.18
2022-10-07T00:04:26.050Z,7.17
2022-10-07T00:05:26.078Z,7.14
2022-10-07T00:06:25.998Z,7.14
2022-10-07T00:07:25.980Z,7.15
2022-10-07T00:08:25.968Z,7.13
2022-10-07T00:09:25.948Z,7.11
2022-10-07T00:10:25.940Z,7.11
2022-10-07T00:11:25.940Z,7.10
2022-10-07T00:12:25.911Z,7.07
2022-10-07T00:13:25.900Z,7.06
2022-10-07T00:14:25.931Z,7.05
2022-10-07T00:15:25.872Z,7.02
2022-10-07T00:16:25.884Z,7.02
2022-10-07T00:17:25.842Z,6.99
2022-10-07T00:18:25.822Z,6.97
2022-10-07T00:19:28.842Z,6.96
2022-10-07T00:20:28.833Z,6.96
2022-10-07T00:21:25.782Z,6.95
2022-10-07T00:22:25.776Z,6.93
2022-10-07T00:23:25.752Z,6.92
2022-10-07T00:24:25.843Z,6.93
2022-10-07T00:25:25.733Z,6.93
2022-10-07T00:26:25.713Z,6.93
2022-10-07T00:27:25.694Z,6.95
2022-10-07T00:28:25.753Z,6.93
2022-10-07T00:29:25.694Z,6.93
2022-10-07T00:30:25.654Z,6.93
2022-10-07T00:31:25.700Z,6.93
2022-10-07T00:32:25.636Z,6.89
2022-10-07T00:33:25.615Z,6.89
2022-10-07T00:34:25.633Z,6.89
2022-10-07T00:35:25.619Z,6.88
2022-10-07T00:36:25.607Z,6.88
2022-10-07T00:37:25.599Z,6.88
2022-10-07T00:38:25.561Z,6.92
2022-10-07T00:39:28.538Z,6.89
2022-10-07T00:40:28.542Z,6.93
2022-10-07T00:41:25.517Z,6.89
2022-10-07T00:42:25.538Z,6.87
2022-10-07T00:43:25.496Z,6.85
2022-10-07T00:44:25.469Z,6.84
2022-10-07T00:45:25.459Z,6.82
2022-10-07T00:46:25.440Z,6.81
2022-10-07T00:47:25.427Z,6.79
2022-10-07T00:48:25.450Z,6.79
2022-10-07T00:49:25.400Z,6.77
2022-10-07T00:50:25.391Z,6.75
2022-10-07T00:51:25.389Z,6.74
2022-10-07T00:52:25.352Z,6.75
2022-10-07T00:53:25.412Z,6.70
2022-10-07T00:54:25.331Z,6.70
2022-10-07T00:55:25.332Z,6.72
2022-10-07T00:56:25.303Z,6.74
2022-10-07T00:57:25.293Z,6.74
2022-10-07T00:58:25.273Z,6.74
2022-10-07T00:59:28.294Z,6.74
2022-10-07T01:00:28.275Z,6.77
2022-10-07T01:01:25.262Z,6.75
2022-10-07T01:02:25.329Z,6.75
2022-10-07T01:03:25.234Z,6.77
2022-10-07T01:04:25.223Z,6.77
2022-10-07T01:05:25.182Z,6.75
2022-10-07T01:06:25.170Z,6.77
2022-10-07T01:07:25.145Z,6.77
2022-10-07T01:08:25.166Z,6.77
2022-10-07T01:09:25.137Z,6.78
2022-10-07T01:10:25.117Z,6.77
2022-10-07T01:11:25.107Z,6.77
2022-10-07T01:12:25.106Z,6.78
2022-10-07T01:13:25.080Z,6.78
2022-10-07T01:14:25.056Z,6.78
2022-10-07T01:15:25.068Z,6.78
2022-10-07T01:16:25.074Z,6.77
2022-10-07T01:17:25.018Z,6.75
2022-10-07T01:18:24.998Z,6.72
2022-10-07T01:19:28.050Z,6.72
2022-10-07T01:20:27.988Z,6.74
2022-10-07T01:21:24.965Z,6.72
2022-10-07T01:22:24.950Z,6.69
2022-10-07T01:23:24.940Z,6.66
2022-10-07T01:24:24.926Z,6.64
2022-10-07T01:25:24.939Z,6.63
2022-10-07T01:26:24.897Z,6.62
2022-10-07T01:27:24.876Z,6.60
2022-10-07T01:28:24.909Z,6.59
2022-10-07T01:29:24.860Z,6.59
2022-10-07T01:30:24.862Z,6.60
2022-10-07T01:31:24.831Z,6.60
2022-10-07T01:32:24.821Z,6.60
2022-10-07T01:33:24.793Z,6.60
2022-10-07T01:34:24.792Z,6.59
2022-10-07T01:35:24.811Z,6.59
2022-10-07T01:36:24.752Z,6.57
2022-10-07T01:37:24.743Z,6.56
2022-10-07T01:38:24.723Z,6.56
2022-10-07T01:39:27.703Z,6.52
2022-10-07T01:40:27.735Z,6.52
2022-10-07T01:41:24.687Z,6.51
2022-10-07T01:42:24.674Z,6.49
2022-10-07T01:43:24.654Z,6.51
2022-10-07T01:44:24.646Z,6.52
2022-10-07T01:45:24.664Z,6.52
2022-10-07T01:46:24.722Z,6.51
2022-10-07T01:47:24.606Z,6.49
2022-10-07T01:48:24.616Z,6.49
2022-10-07T01:49:24.586Z,6.48
2022-10-07T01:50:24.577Z,6.48
2022-10-07T01:51:24.581Z,6.46
2022-10-07T01:52:24.569Z,6.48
2022-10-07T01:53:24.536Z,6.46
2022-10-07T01:54:24.515Z,6.46
2022-10-07T01:55:24.512Z,6.46
2022-10-07T01:56:24.517Z,6.48
2022-10-07T01:57:24.476Z,6.48
2022-10-07T01:58:24.458Z,6.48
2022-10-07T01:59:27.448Z,6.46
2022-10-07T02:00:27.440Z,6.49
2022-10-07T02:01:24.663Z,6.46
2022-10-07T02:02:24.401Z,6.46
2022-10-07T02:03:24.439Z,6.46
2022-10-07T02:04:24.380Z,6.46
2022-10-07T02:05:24.363Z,6.45
2022-10-07T02:06:24.349Z,6.44
2022-10-07T02:07:24.358Z,6.42
2022-10-07T02:08:24.313Z,6.41
2022-10-07T02:09:24.302Z,6.39
2022-10-07T02:10:24.300Z,6.36
2022-10-07T02:11:24.274Z,6.35
2022-10-07T02:12:24.299Z,6.33
2022-10-07T02:13:24.243Z,6.31
2022-10-07T02:14:24.242Z,6.28
2022-10-07T02:15:24.224Z,6.28
2022-10-07T02:16:24.268Z,6.26
2022-10-07T02:17:24.253Z,6.24
2022-10-07T02:18:24.182Z,6.22
2022-10-07T02:19:27.164Z,6.19
2022-10-07T02:20:27.169Z,6.19
2022-10-07T02:21:24.143Z,6.14
2022-10-07T02:22:24.128Z,6.11
2022-10-07T02:23:24.184Z,6.09
2022-10-07T02:24:24.105Z,6.08
2022-10-07T02:25:24.075Z,6.05
2022-10-07T02:26:24.076Z,6.01
2022-10-07T02:27:24.056Z,6.01
2022-10-07T02:28:24.116Z,5.98
2022-10-07T02:29:24.066Z,5.98
2022-10-07T02:30:24.019Z,5.99
2022-10-07T02:31:24.040Z,6.01
2022-10-07T02:32:24.016Z,5.99
2022-10-07T02:33:23.977Z,6.04
2022-10-07T02:34:23.967Z,6.02
2022-10-07T02:35:23.963Z,6.04
2022-10-07T02:36:23.953Z,6.07
2022-10-07T02:37:23.949Z,6.08
2022-10-07T02:38:23.917Z,6.09
2022-10-07T02:39:26.909Z,6.11
2022-10-07T02:40:26.907Z,6.12
2022-10-07T02:41:23.866Z,6.09
2022-10-07T02:42:23.899Z,6.12
2022-10-07T02:43:23.838Z,6.09
2022-10-07T02:44:23.827Z,6.11
2022-10-07T02:45:26.824Z,6.09
2022-10-07T02:46:23.904Z,6.09
2022-10-07T02:47:23.781Z,6.09
2022-10-07T02:48:23.820Z,6.09
2022-10-07T02:49:23.764Z,6.09
2022-10-07T02:50:23.751Z,6.08
2022-10-07T02:51:23.718Z,6.07
2022-10-07T02:52:23.721Z,6.07
2022-10-07T02:53:23.711Z,6.05
2022-10-07T02:54:23.722Z,6.05
2022-10-07T02:55:23.679Z,6.05
2022-10-07T02:56:23.672Z,6.05
2022-10-07T02:57:23.651Z,6.04
2022-10-07T02:58:23.660Z,6.05
2022-10-07T02:59:26.612Z,6.04
2022-10-07T03:00:26.633Z,6.05
2022-10-07T03:01:23.693Z,6.01
2022-10-07T03:02:23.583Z,6.02
2022-10-07T03:03:23.632Z,6.02
2022-10-07T03:04:23.568Z,5.99
2022-10-07T03:05:23.544Z,6.01
2022-10-07T03:06:23.541Z,6.02
2022-10-07T03:07:23.516Z,5.99
2022-10-07T03:08:23.546Z,6.01
2022-10-07T03:09:23.514Z,6.01
2022-10-07T03:10:23.474Z,6.01
2022-10-07T03:11:23.457Z,6.01
2022-10-07T03:12:23.455Z,5.99
2022-10-07T03:13:23.427Z,5.99
2022-10-07T03:14:23.457Z,5.99
2022-10-07T03:15:23.400Z,5.99
2022-10-07T03:16:23.429Z,5.98
2022-10-07T03:17:23.387Z,5.99
2022-10-07T03:18:23.368Z,5.99
2022-10-07T03:19:26.397Z,5.99
2022-10-07T03:20:26.424Z,6.01
2022-10-07T03:21:23.325Z,5.98
2022-10-07T03:22:23.318Z,5.98
2022-10-07T03:23:23.298Z,5.94
2022-10-07T03:24:23.269Z,5.98
2022-10-07T03:25:23.279Z,5.98
2022-10-07T03:26:23.280Z,5.98
2022-10-07T03:27:23.279Z,5.98
2022-10-07T03:28:23.295Z,6.01
2022-10-07T03:29:23.225Z,6.02
2022-10-07T03:30:24.386Z,6.01
2022-10-07T03:31:23.250Z,5.99
2022-10-07T03:32:23.211Z,6.02
2022-10-07T03:33:23.169Z,6.01
2022-10-07T03:34:23.159Z,5.99
2022-10-07T03:35:23.133Z,5.99
2022-10-07T03:36:23.115Z,5.99
2022-10-07T03:37:23.131Z,5.98
2022-10-07T03:38:23.102Z,5.97
2022-10-07T03:39:26.082Z,5.98
2022-10-07T03:40:26.103Z,5.98
2022-10-07T03:41:23.053Z,5.94
2022-10-07T03:42:23.064Z,5.94
2022-10-07T03:43:23.063Z,5.93
2022-10-07T03:44:23.016Z,5.91
2022-10-07T03:45:23.003Z,5.90
2022-10-07T03:46:23.021Z,5.90
2022-10-07T03:47:22.974Z,5.89
2022-10-07T03:48:23.012Z,5.87
2022-10-07T03:49:22.944Z,5.86
2022-10-07T03:50:22.949Z,5.86
2022-10-07T03:51:22.927Z,5.84
2022-10-07T03:52:22.917Z,5.82
2022-10-07T03:53:22.893Z,5.83
2022-10-07T03:54:22.946Z,5.82
2022-10-07T03:55:22.866Z,5.80
2022-10-07T03:56:22.856Z,5.80
2022-10-07T03:57:22.859Z,5.79
2022-10-07T03:58:22.817Z,5.79
2022-10-07T03:59:25.847Z,5.76
2022-10-07T04:00:25.816Z,5.76
2022-10-07T04:01:22.818Z,5.73
2022-10-07T04:02:22.812Z,5.69
2022-10-07T04:03:22.849Z,5.69
2022-10-07T04:04:22.746Z,5.68
2022-10-07T04:05:22.735Z,5.66
2022-10-07T04:06:22.708Z,5.66
2022-10-07T04:07:22.742Z,5.68
2022-10-07T04:08:22.689Z,5.68
2022-10-07T04:09:22.669Z,5.68
2022-10-07T04:10:22.649Z,5.69
2022-10-07T04:11:22.649Z,5.68
2022-10-07T04:12:22.646Z,5.68
2022-10-07T04:13:22.669Z,5.66
2022-10-07T04:14:22.610Z,5.66
2022-10-07T04:15:22.601Z,5.66
2022-10-07T04:16:22.610Z,5.65
2022-10-07T04:17:22.566Z,5.66
2022-10-07T04:18:22.561Z,5.66
2022-10-07T04:19:25.561Z,5.66
2022-10-07T04:20:25.540Z,5.68
2022-10-07T04:21:22.501Z,5.66
2022-10-07T04:22:22.510Z,5.66
2022-10-07T04:23:22.481Z,5.68
2022-10-07T04:24:22.522Z,5.69
2022-10-07T04:25:22.469Z,5.72
2022-10-07T04:26:22.457Z,5.75
2022-10-07T04:27:46.909Z,5.76
2022-10-07T04:28:23.458Z,5.79
2022-10-07T04:29:22.408Z,5.80
2022-10-07T04:30:22.475Z,5.80
2022-10-07T04:31:22.411Z,5.79
2022-10-07T04:32:22.355Z,5.76
2022-10-07T04:33:22.344Z,5.75
2022-10-07T04:34:22.334Z,5.72
2022-10-07T04:35:22.325Z,5.71
2022-10-07T04:36:22.335Z,5.69
2022-10-07T04:37:22.296Z,5.71
2022-10-07T04:38:26.323Z,5.68
2022-10-07T04:39:37.638Z,5.66
2022-10-07T04:40:26.267Z,5.66
2022-10-07T04:41:22.307Z,5.62
2022-10-07T04:42:22.215Z,5.61
2022-10-07T04:43:22.217Z,5.56
2022-10-07T04:44:22.197Z,5.56
2022-10-07T04:45:22.187Z,5.53
2022-10-07T04:46:22.267Z,5.51
2022-10-07T04:47:22.206Z,5.50
2022-10-07T04:48:22.141Z,5.48
2022-10-07T04:49:22.129Z,5.44
2022-10-07T04:50:22.118Z,5.43
2022-10-07T04:51:22.101Z,5.43
2022-10-07T04:52:22.091Z,5.41
2022-10-07T04:53:22.101Z,5.41
2022-10-07T04:54:22.059Z,5.43
2022-10-07T04:55:22.048Z,5.43
2022-10-07T04:56:22.039Z,5.39
2022-10-07T04:57:22.020Z,5.43
2022-10-07T04:58:22.044Z,5.41
2022-10-07T04:59:28.002Z,5.41
2022-10-07T05:00:25.002Z,5.43
2022-10-07T05:01:22.048Z,5.39
2022-10-07T05:02:22.069Z,5.38
2022-10-07T05:03:21.930Z,5.38
2022-10-07T05:04:21.932Z,5.36
2022-10-07T05:05:21.953Z,5.36
2022-10-07T05:06:21.901Z,5.35
2022-10-07T05:07:21.891Z,5.35
2022-10-07T05:08:21.871Z,5.33
2022-10-07T05:09:21.882Z,5.35
2022-10-07T05:10:21.873Z,5.33
2022-10-07T05:11:21.831Z,5.33
2022-10-07T05:12:21.829Z,5.35
2022-10-07T05:13:21.809Z,5.36
2022-10-07T05:14:21.863Z,5.36
2022-10-07T05:15:21.780Z,5.36
2022-10-07T05:16:21.808Z,5.38
2022-10-07T05:17:21.751Z,5.36
2022-10-07T05:18:21.737Z,5.35
2022-10-07T05:19:24.743Z,5.33
2022-10-07T05:20:24.766Z,5.35
2022-10-07T05:21:21.705Z,5.35
2022-10-07T05:22:21.675Z,5.35
2022-10-07T05:23:27.158Z,5.35
2022-10-07T05:24:22.666Z,5.33
2022-10-07T05:25:21.645Z,5.32
2022-10-07T05:26:21.657Z,5.33
2022-10-07T05:27:21.616Z,5.33
2022-10-07T05:28:21.624Z,5.33
2022-10-07T05:29:21.567Z,5.32
2022-10-07T05:30:21.568Z,5.30
2022-10-07T05:31:21.637Z,5.32
2022-10-07T05:32:21.547Z,5.30
2022-10-07T05:33:21.527Z,5.32
2022-10-07T05:34:21.515Z,5.29
2022-10-07T05:35:21.488Z,5.26
2022-10-07T05:36:21.487Z,5.28
2022-10-07T05:37:21.519Z,5.28
2022-10-07T05:38:21.468Z,5.28
2022-10-07T05:39:24.428Z,5.26
2022-10-07T05:40:24.450Z,5.29
2022-10-07T05:41:21.418Z,5.28
2022-10-07T05:42:21.408Z,5.28
2022-10-07T05:43:21.441Z,5.28
2022-10-07T05:44:21.379Z,5.30
2022-10-07T05:45:24.080Z,5.32
2022-10-07T05:46:21.383Z,5.35
2022-10-07T05:47:21.321Z,5.38
2022-10-07T05:48:21.311Z,5.41
2022-10-07T05:49:21.321Z,5.39
2022-10-07T05:50:21.280Z,5.41
2022-10-07T05:51:21.271Z,5.44
2022-10-07T05:52:21.251Z,5.46
2022-10-07T05:53:21.233Z,5.44
2022-10-07T05:54:21.283Z,5.44
2022-10-07T05:55:21.202Z,5.47
2022-10-07T05:56:21.202Z,5.48
2022-10-07T05:57:21.174Z,5.51
2022-10-07T05:58:21.164Z,5.53
2022-10-07T05:59:24.173Z,5.53
2022-10-07T06:00:24.153Z,5.57
2022-10-07T06:01:21.118Z,5.56
2022-10-07T06:02:21.281Z,5.56
2022-10-07T06:03:21.162Z,5.59
2022-10-07T06:04:21.094Z,5.61
2022-10-07T06:05:21.066Z,5.62
2022-10-07T06:06:21.054Z,5.64
2022-10-07T06:07:24.382Z,5.66
2022-10-07T06:08:22.085Z,5.65
2022-10-07T06:09:21.017Z,5.69
2022-10-07T06:10:21.007Z,5.73
2022-10-07T06:11:20.986Z,5.75
2022-10-07T06:12:20.976Z,5.80
2022-10-07T06:13:20.956Z,5.84
2022-10-07T06:14:20.978Z,5.87
2022-10-07T06:15:20.936Z,5.89
2022-10-07T06:16:20.967Z,5.91
2022-10-07T06:17:20.897Z,5.94
2022-10-07T06:18:20.891Z,5.98
2022-10-07T06:19:23.926Z,6.01
2022-10-07T06:20:23.890Z,6.07
2022-10-07T06:21:20.847Z,6.08
2022-10-07T06:22:20.848Z,6.09
2022-10-07T06:23:20.818Z,6.11
2022-10-07T06:24:20.809Z,6.14
2022-10-07T06:25:20.829Z,6.16
2022-10-07T06:26:20.778Z,6.20
2022-10-07T06:27:20.818Z,6.27
2022-10-07T06:28:20.807Z,6.33
2022-10-07T06:29:20.740Z,6.38
2022-10-07T06:30:20.720Z,6.42
2022-10-07T06:31:20.801Z,6.45
2022-10-07T06:32:20.700Z,6.49
2022-10-07T06:33:20.721Z,6.54
2022-10-07T06:34:20.671Z,6.62
2022-10-07T06:35:20.673Z,6.70
2022-10-07T06:36:20.644Z,6.79
2022-10-07T06:37:20.694Z,6.88
2022-10-07T06:38:20.641Z,6.95
2022-10-07T06:39:23.633Z,7.02
2022-10-07T06:40:23.615Z,7.10
2022-10-07T06:41:20.582Z,7.14
2022-10-07T06:42:20.572Z,7.18
2022-10-07T06:43:20.603Z,7.20
2022-10-07T06:44:20.553Z,7.21
2022-10-07T06:45:20.523Z,7.25
2022-10-07T06:46:20.560Z,7.28
2022-10-07T06:47:20.526Z,7.32
2022-10-07T06:48:20.498Z,7.38
2022-10-07T06:49:20.483Z,7.39
2022-10-07T06:50:20.465Z,7.39
2022-10-07T06:51:20.445Z,7.40
2022-10-07T06:52:20.506Z,7.42
2022-10-07T06:53:20.435Z,7.43
2022-10-07T06:54:20.423Z,7.45
2022-10-07T06:55:20.405Z,7.45
2022-10-07T06:56:20.387Z,7.48
2022-10-07T06:57:44.483Z,7.51
2022-10-07T06:58:21.390Z,7.53
2022-10-07T06:59:23.375Z,7.56
2022-10-07T07:00:23.386Z,7.61
2022-10-07T07:01:20.432Z,7.66
2022-10-07T07:02:20.309Z,7.70
2022-10-07T07:03:20.288Z,7.75
2022-10-07T07:04:20.268Z,7.77
2022-10-07T07:05:20.278Z,7.80
2022-10-07T07:06:20.267Z,7.80
2022-10-07T07:07:20.239Z,7.83
2022-10-07T07:08:20.218Z,7.83
2022-10-07T07:09:20.208Z,7.87
2022-10-07T07:10:20.195Z,7.88
2022-10-07T07:11:20.239Z,7.90
2022-10-07T07:12:20.152Z,7.91
2022-10-07T07:13:20.159Z,7.94
2022-10-07T07:14:20.128Z,7.97
2022-10-07T07:15:20.129Z,8.01
2022-10-07T07:16:20.187Z,8.08
2022-10-07T07:17:20.129Z,8.13
2022-10-07T07:18:20.098Z,8.23
2022-10-07T07:19:23.061Z,8.34
2022-10-07T07:20:23.072Z,8.46
2022-10-07T07:21:20.035Z,8.58
2022-10-07T07:22:20.082Z,8.70
2022-10-07T07:23:20.032Z,8.81
2022-10-07T07:24:20.016Z,8.88
2022-10-07T07:25:19.992Z,8.97
2022-10-07T07:26:19.962Z,8.99
2022-10-07T07:27:19.965Z,9.00
2022-10-07T07:28:20.074Z,9.04
2022-10-07T07:29:19.944Z,9.06
2022-10-07T07:30:20.343Z,9.03
2022-10-07T07:31:19.927Z,9.02
2022-10-07T07:32:19.905Z,9.02
2022-10-07T07:33:19.895Z,9.04
2022-10-07T07:34:19.922Z,9.06
2022-10-07T07:35:19.868Z,9.06
2022-10-07T07:36:19.843Z,9.06
2022-10-07T07:37:19.817Z,9.03
2022-10-07T07:38:23.374Z,9.02
2022-10-07T07:39:23.826Z,9.02
2022-10-07T07:40:22.806Z,9.02
2022-10-07T07:41:19.843Z,9.00
2022-10-07T07:42:19.766Z,9.02
2022-10-07T07:43:19.748Z,9.06
2022-10-07T07:44:19.807Z,9.06
2022-10-07T07:45:19.739Z,9.13
2022-10-07T07:46:19.796Z,9.14
2022-10-07T07:47:19.744Z,9.18
2022-10-07T07:48:19.671Z,9.21
2022-10-07T07:49:19.688Z,9.23
2022-10-07T07:50:19.670Z,9.25
2022-10-07T07:51:19.639Z,9.25
2022-10-07T07:52:19.600Z,9.28
2022-10-07T07:53:19.620Z,9.28
2022-10-07T07:54:19.639Z,9.28
2022-10-07T07:55:19.620Z,9.29
2022-10-07T07:56:19.581Z,9.32
2022-10-07T07:57:19.558Z,9.37
2022-10-07T07:58:19.557Z,9.43
2022-10-07T07:59:22.521Z,9.47
2022-10-07T08:00:22.537Z,9.54
2022-10-07T08:01:19.542Z,9.58
2022-10-07T08:02:19.593Z,9.64
2022-10-07T08:03:19.521Z,9.66
2022-10-07T08:04:19.455Z,9.74
2022-10-07T08:05:23.675Z,9.80
2022-10-07T08:06:19.433Z,9.84
2022-10-07T08:07:19.403Z,9.91
2022-10-07T08:08:19.403Z,9.94
2022-10-07T08:09:19.420Z,9.98
2022-10-07T08:10:19.376Z,10.04
2022-10-07T08:11:19.364Z,10.10
2022-10-07T08:12:19.328Z,10.16
2022-10-07T08:13:19.323Z,10.22
2022-10-07T08:14:19.296Z,10.28
2022-10-07T08:15:19.348Z,10.34
2022-10-07T08:16:19.316Z,10.38
2022-10-07T08:17:19.695Z,10.42
2022-10-07T08:18:19.257Z,10.46
2022-10-07T08:19:22.337Z,10.51
2022-10-07T08:20:22.627Z,10.56
2022-10-07T08:21:19.224Z,10.60
2022-10-07T08:22:19.359Z,10.64
2022-10-07T08:23:19.187Z,10.68
2022-10-07T08:24:19.226Z,10.72
2022-10-07T08:25:19.188Z,10.76
2022-10-07T08:26:19.217Z,10.84
2022-10-07T08:27:19.129Z,10.89
2022-10-07T08:28:19.196Z,10.94
2022-10-07T08:29:19.131Z,10.99
2022-10-07T08:30:19.090Z,11.05
2022-10-07T08:31:19.118Z,11.10
2022-10-07T08:32:19.108Z,11.14
2022-10-07T08:33:19.050Z,11.15
2022-10-07T08:34:19.057Z,11.19
2022-10-07T08:35:19.018Z,11.26
2022-10-07T08:36:19.019Z,11.32
2022-10-07T08:37:19.082Z,11.36
2022-10-07T08:38:18.981Z,11.44
2022-10-07T08:39:22.011Z,11.50
2022-10-07T08:40:21.992Z,11.57
2022-10-07T08:41:18.973Z,11.60
2022-10-07T08:42:18.963Z,11.62
2022-10-07T08:43:18.963Z,11.69
2022-10-07T08:44:18.946Z,11.72
2022-10-07T08:45:18.919Z,11.72
2022-10-07T08:46:18.948Z,11.78
2022-10-07T08:47:18.865Z,11.83
2022-10-07T08:48:18.983Z,11.87
2022-10-07T08:49:18.846Z,11.95
2022-10-07T08:50:20.068Z,11.99
2022-10-07T08:51:18.814Z,12.03
2022-10-07T08:52:18.817Z,12.06
2022-10-07T08:53:18.785Z,12.10
2022-10-07T08:54:18.764Z,12.17
2022-10-07T08:55:18.813Z,12.20
2022-10-07T08:56:18.779Z,12.21
2022-10-07T08:57:18.737Z,12.22
2022-10-07T08:58:18.717Z,12.27
2022-10-07T08:59:21.725Z,12.35
2022-10-07T09:00:21.863Z,12.40
2022-10-07T09:01:18.847Z,12.39
2022-10-07T09:02:18.697Z,12.43
2022-10-07T09:03:24.117Z,12.49
2022-10-07T09:04:19.638Z,12.58
2022-10-07T09:05:18.640Z,12.62
2022-10-07T09:06:18.680Z,12.64
2022-10-07T09:07:18.579Z,12.67
2022-10-07T09:08:18.558Z,12.72
2022-10-07T09:09:19.600Z,12.75
2022-10-07T09:10:18.550Z,12.79
2022-10-07T09:11:18.531Z,12.87
2022-10-07T09:12:18.541Z,12.91
2022-10-07T09:13:18.495Z,12.95
2022-10-07T09:14:18.483Z,12.98
2022-10-07T09:15:18.474Z,12.98
2022-10-07T09:16:18.524Z,13.01
2022-10-07T09:17:18.629Z,13.04
2022-10-07T09:18:18.460Z,13.08
2022-10-07T09:19:21.434Z,13.15
2022-10-07T09:20:21.404Z,13.20
2022-10-07T09:21:18.433Z,13.22
2022-10-07T09:22:18.360Z,13.28
2022-10-07T09:23:18.386Z,13.37
2022-10-07T09:24:18.346Z,13.47
2022-10-07T09:25:18.336Z,13.50
2022-10-07T09:26:18.345Z,13.56
2022-10-07T09:27:18.317Z,13.59
2022-10-07T09:28:18.331Z,13.62
2022-10-07T09:29:18.265Z,13.65
2022-10-07T09:30:18.276Z,13.72
2022-10-07T09:31:18.284Z,13.75
2022-10-07T09:32:18.227Z,13.78
2022-10-07T09:33:18.226Z,13.85
2022-10-07T09:34:18.207Z,13.89
2022-10-07T09:35:18.256Z,13.92
2022-10-07T09:36:18.191Z,13.96
2022-10-07T09:37:18.160Z,14.00
2022-10-07T09:38:18.155Z,14.05
2022-10-07T09:39:21.132Z,14.08
2022-10-07T09:40:21.164Z,14.11
2022-10-07T09:41:18.099Z,14.11
2022-10-07T09:42:18.108Z,14.14
2022-10-07T09:43:18.083Z,14.18
2022-10-07T09:44:18.080Z,14.22
2022-10-07T09:45:18.091Z,14.28
2022-10-07T09:46:18.074Z,14.30
2022-10-07T09:47:18.058Z,14.36
2022-10-07T09:48:18.013Z,14.44
2022-10-07T09:49:22.249Z,14.48
2022-10-07T09:50:19.030Z,14.51
2022-10-07T09:51:17.965Z,14.51
2022-10-07T09:52:17.950Z,14.58
2022-10-07T09:53:17.952Z,14.62
2022-10-07T09:54:17.938Z,14.66
2022-10-07T09:55:17.924Z,14.70
2022-10-07T09:56:17.924Z,14.79
2022-10-07T09:57:19.000Z,14.86
2022-10-07T09:58:17.903Z,14.96
2022-10-07T09:59:20.883Z,15.03
2022-10-07T10:00:20.863Z,15.14
2022-10-07T10:01:17.837Z,15.17
2022-10-07T10:02:17.941Z,15.24
2022-10-07T10:03:17.856Z,15.29
2022-10-07T10:04:17.801Z,15.37
2022-10-07T10:05:17.789Z,15.33
2022-10-07T10:06:17.788Z,15.28
2022-10-07T10:07:17.748Z,15.39
2022-10-07T10:08:17.796Z,15.46
2022-10-07T10:09:20.216Z,15.54
2022-10-07T10:10:17.709Z,15.54
2022-10-07T10:11:17.689Z,15.58
2022-10-07T10:12:17.689Z,15.58
2022-10-07T10:13:17.670Z,15.57
2022-10-07T10:14:17.680Z,15.64
2022-10-07T10:15:17.692Z,15.61
2022-10-07T10:16:17.690Z,15.62
2022-10-07T10:17:17.623Z,15.64
2022-10-07T10:18:17.603Z,15.59
2022-10-07T10:19:20.643Z,15.61
2022-10-07T10:20:20.573Z,15.64
2022-10-07T10:21:17.573Z,15.61
2022-10-07T10:22:17.546Z,15.65
2022-10-07T10:23:17.544Z,15.72
2022-10-07T10:24:17.525Z,15.73
2022-10-07T10:25:17.575Z,15.75
2022-10-07T10:26:17.497Z,15.79
2022-10-07T10:27:17.477Z,15.86
2022-10-07T10:28:17.493Z,15.83
2022-10-07T10:29:17.444Z,15.83
2022-10-07T10:30:17.425Z,15.86
2022-10-07T10:31:17.524Z,15.91
2022-10-07T10:32:17.397Z,15.90
2022-10-07T10:33:17.387Z,15.95
2022-10-07T10:34:17.420Z,15.97
2022-10-07T10:35:17.370Z,16.01
2022-10-07T10:36:17.349Z,16.05
2022-10-07T10:37:17.434Z,16.05
2022-10-07T10:38:17.318Z,16.12
2022-10-07T10:39:20.341Z,16.16
2022-10-07T10:40:20.399Z,16.24
2022-10-07T10:41:17.271Z,16.23
2022-10-07T10:42:17.270Z,16.24
2022-10-07T10:43:17.259Z,16.17
2022-10-07T10:44:17.241Z,16.16
2022-10-07T10:45:17.282Z,16.17
2022-10-07T10:46:17.466Z,16.20
2022-10-07T10:47:17.192Z,16.24
2022-10-07T10:48:17.185Z,16.28
2022-10-07T10:49:17.173Z,16.33
2022-10-07T10:50:17.173Z,16.38
2022-10-07T10:51:17.133Z,16.43
2022-10-07T10:52:17.153Z,16.43
2022-10-07T10:53:17.095Z,16.50
2022-10-07T10:54:17.105Z,16.51
2022-10-07T10:55:17.226Z,16.51
2022-10-07T10:56:17.096Z,16.47
2022-10-07T10:57:17.056Z,16.49
2022-10-07T10:58:17.089Z,16.53
2022-10-07T10:59:20.107Z,16.53
2022-10-07T11:00:20.033Z,16.54
2022-10-07T11:01:17.131Z,16.56
2022-10-07T11:02:17.112Z,16.60
2022-10-07T11:03:17.092Z,16.66
2022-10-07T11:04:17.026Z,16.66
2022-10-07T11:05:16.945Z,16.66
2022-10-07T11:06:16.963Z,16.69
2022-10-07T11:07:16.960Z,16.69
2022-10-07T11:08:16.909Z,16.74
2022-10-07T11:09:16.905Z,16.78
2022-10-07T11:10:16.893Z,16.83
2022-10-07T11:11:16.912Z,16.83
2022-10-07T11:12:16.908Z,16.86
2022-10-07T11:13:16.841Z,16.90
2022-10-07T11:14:16.823Z,16.91
2022-10-07T11:15:16.853Z,16.94
2022-10-07T11:16:17.748Z,16.94
2022-10-07T11:17:16.843Z,17.01
2022-10-07T11:18:16.794Z,17.02
2022-10-07T11:19:19.771Z,17.05
2022-10-07T11:20:19.778Z,17.08
2022-10-07T11:21:16.747Z,17.08
2022-10-07T11:22:16.755Z,17.11
2022-10-07T11:23:16.880Z,17.15
2022-10-07T11:24:16.722Z,17.14
2022-10-07T11:25:16.677Z,17.15
2022-10-07T11:26:16.697Z,17.20
2022-10-07T11:27:16.678Z,17.26
2022-10-07T11:28:16.705Z,17.33
2022-10-07T11:29:16.668Z,17.36
2022-10-07T11:30:16.661Z,17.34
2022-10-07T11:31:16.677Z,17.31
2022-10-07T11:32:16.589Z,17.41
2022-10-07T11:33:16.610Z,17.46
2022-10-07T11:34:16.560Z,17.54
2022-10-07T11:35:16.553Z,17.60
2022-10-07T11:36:16.545Z,17.56
2022-10-07T11:37:16.520Z,17.64
2022-10-07T11:38:16.545Z,17.68
2022-10-07T11:39:19.492Z,17.67
2022-10-07T11:40:19.499Z,17.64
2022-10-07T11:41:16.471Z,17.65
2022-10-07T11:42:16.463Z,17.60
2022-10-07T11:43:16.479Z,17.54
2022-10-07T11:44:16.405Z,17.60
2022-10-07T11:45:16.412Z,17.64
2022-10-07T11:46:16.535Z,17.70
2022-10-07T11:47:16.377Z,17.72
2022-10-07T11:48:16.375Z,17.74
2022-10-07T11:49:16.385Z,17.80
2022-10-07T11:50:16.453Z,17.87
2022-10-07T11:51:16.403Z,17.95
2022-10-07T11:52:16.325Z,18.04
2022-10-07T11:53:16.396Z,18.08
2022-10-07T11:54:16.400Z,18.08
2022-10-07T11:55:16.281Z,18.13
2022-10-07T11:56:16.270Z,18.10
2022-10-07T11:57:16.246Z,18.11
2022-10-07T11:58:16.223Z,18.11
2022-10-07T11:59:19.258Z,18.16
2022-10-07T12:00:19.218Z,18.22
2022-10-07T12:01:16.170Z,18.23
2022-10-07T12:02:16.221Z,18.25
2022-10-07T12:03:16.186Z,18.26
2022-10-07T12:04:16.175Z,18.22
2022-10-07T12:05:16.143Z,18.26
2022-10-07T12:06:16.132Z,18.31
2022-10-07T12:07:16.123Z,18.34
2022-10-07T12:08:16.090Z,18.29
2022-10-07T12:09:16.072Z,18.28
2022-10-07T12:10:16.165Z,18.16
2022-10-07T12:11:16.038Z,18.19
2022-10-07T12:12:16.034Z,18.20
2022-10-07T12:13:23.706Z,18.13
2022-10-07T12:14:23.624Z,18.07
2022-10-07T12:15:24.596Z,18.05
2022-10-07T12:16:24.899Z,18.04
2022-10-07T12:17:23.676Z,18.03
2022-10-07T12:18:23.518Z,18.01
2022-10-07T12:19:26.484Z,18.03
2022-10-07T12:20:26.563Z,18.08
2022-10-07T12:21:23.528Z,18.10
2022-10-07T12:22:24.768Z,18.13
2022-10-07T12:23:25.618Z,18.11
2022-10-07T12:24:23.506Z,18.13
2022-10-07T12:25:24.449Z,18.11
2022-10-07T12:26:23.555Z,18.07
2022-10-07T12:27:23.412Z,17.95
2022-10-07T12:28:23.589Z,17.85
2022-10-07T12:29:24.699Z,17.87
2022-10-07T12:30:15.776Z,17.86
2022-10-07T12:31:15.837Z,17.86
2022-10-07T12:32:15.760Z,17.82
2022-10-07T12:33:15.729Z,17.78
2022-10-07T12:34:15.731Z,17.83
2022-10-07T12:35:15.742Z,17.90
2022-10-07T12:36:15.681Z,17.94
2022-10-07T12:37:15.662Z,18.00
2022-10-07T12:38:15.667Z,18.07
2022-10-07T12:39:18.673Z,18.16
2022-10-07T12:40:18.647Z,18.23
2022-10-07T12:41:15.677Z,18.25
2022-10-07T12:42:15.653Z,18.25
2022-10-07T12:43:15.585Z,18.29
2022-10-07T12:44:15.608Z,18.31
2022-10-07T12:45:15.594Z,18.34
2022-10-07T12:46:15.665Z,18.38
2022-10-07T12:47:18.476Z,18.45
2022-10-07T12:48:15.547Z,18.53
2022-10-07T12:49:15.530Z,18.52
2022-10-07T12:50:15.527Z,18.62
2022-10-07T12:51:15.486Z,18.63
2022-10-07T12:52:15.498Z,18.62
2022-10-07T12:53:15.448Z,18.70
2022-10-07T12:54:15.429Z,18.75
2022-10-07T12:55:15.455Z,18.81
2022-10-07T12:56:15.444Z,18.89
2022-10-07T12:57:15.419Z,18.77
2022-10-07T12:58:15.381Z,18.74
2022-10-07T12:59:18.363Z,18.77
2022-10-07T13:00:18.417Z,18.71
2022-10-07T13:01:15.445Z,18.74
2022-10-07T13:02:15.417Z,18.78
2022-10-07T13:03:15.330Z,18.80
2022-10-07T13:04:15.303Z,18.81
2022-10-07T13:05:15.325Z,18.81
2022-10-07T13:06:15.306Z,18.86
2022-10-07T13:07:15.255Z,18.90
2022-10-07T13:08:15.245Z,18.90